sensor_id;sensor_type;location;lat;lon;timestamp;P1;durP1;ratioP1;P2;durP2;ratioP2
7985;SDS011;4038;42.612;23.066;2022-10-22T00:01:06;45.60;;;40.70;;
7985;SDS011;4038;42.612;23.066;2022-10-22T00:03:32;47.03;;;42.00;;
7985;SDS011;4038;42.612;23.066;2022-10-22T00:05:58;52.63;;;43.60;;
7985;SDS011;4038;42.612;23.066;2022-10-22T00:08:23;49.93;;;44.43;;
7985;SDS011;4038;42.612;23.066;2022-10-22T00:10:49;53.17;;;42.30;;
7985;SDS011;4038;42.612;23.066;2022-10-22T00:13:15;46.67;;;41.77;;
7985;SDS011;4038;42.612;23.066;2022-10-22T00:15:40;45.50;;;40.53;;
7985;SDS011;4038;42.612;23.066;2022-10-22T00:18:06;47.07;;;42.30;;
7985;SDS011;4038;42.612;23.066;2022-10-22T00:20:32;45.27;;;40.17;;
7985;SDS011;4038;42.612;23.066;2022-10-22T00:22:57;43.43;;;38.73;;
7985;SDS011;4038;42.612;23.066;2022-10-22T00:25:22;41.90;;;37.40;;
7985;SDS011;4038;42.612;23.066;2022-10-22T00:27:48;44.47;;;40.00;;
7985;SDS011;4038;42.612;23.066;2022-10-22T00:30:13;43.10;;;38.47;;
7985;SDS011;4038;42.612;23.066;2022-10-22T00:32:39;41.43;;;37.23;;
7985;SDS011;4038;42.612;23.066;2022-10-22T00:35:04;40.03;;;35.70;;
7985;SDS011;4038;42.612;23.066;2022-10-22T00:37:30;40.73;;;36.73;;
7985;SDS011;4038;42.612;23.066;2022-10-22T00:39:56;42.43;;;38.30;;
7985;SDS011;4038;42.612;23.066;2022-10-22T00:42:22;43.10;;;38.40;;
7985;SDS011;4038;42.612;23.066;2022-10-22T00:47:27;40.87;;;36.87;;
7985;SDS011;4038;42.612;23.066;2022-10-22T00:50:00;41.63;;;37.77;;
7985;SDS011;4038;42.612;23.066;2022-10-22T00:52:27;42.87;;;38.53;;
7985;SDS011;4038;42.612;23.066;2022-10-22T00:54:53;42.40;;;38.10;;
7985;SDS011;4038;42.612;23.066;2022-10-22T00:57:18;42.13;;;38.03;;
7985;SDS011;4038;42.612;23.066;2022-10-22T00:59:45;41.10;;;36.97;;
7985;SDS011;4038;42.612;23.066;2022-10-22T01:02:11;43.17;;;39.00;;
7985;SDS011;4038;42.612;23.066;2022-10-22T01:04:37;42.90;;;38.73;;
7985;SDS011;4038;42.612;23.066;2022-10-22T01:07:02;42.03;;;37.87;;
7985;SDS011;4038;42.612;23.066;2022-10-22T01:09:29;42.07;;;37.10;;
7985;SDS011;4038;42.612;23.066;2022-10-22T01:25:47;43.03;;;38.47;;
7985;SDS011;4038;42.612;23.066;2022-10-22T01:31:14;42.33;;;37.33;;
7985;SDS011;4038;42.612;23.066;2022-10-22T01:33:41;42.90;;;38.43;;
7985;SDS011;4038;42.612;23.066;2022-10-22T01:36:09;42.77;;;38.37;;
7985;SDS011;4038;42.612;23.066;2022-10-22T01:38:36;43.23;;;39.30;;
7985;SDS011;4038;42.612;23.066;2022-10-22T01:41:03;43.67;;;39.37;;
7985;SDS011;4038;42.612;23.066;2022-10-22T01:43:29;41.33;;;37.03;;
7985;SDS011;4038;42.612;23.066;2022-10-22T01:45:58;42.47;;;38.20;;
7985;SDS011;4038;42.612;23.066;2022-10-22T01:48:48;41.43;;;37.47;;
7985;SDS011;4038;42.612;23.066;2022-10-22T01:54:01;40.43;;;36.50;;
7985;SDS011;4038;42.612;23.066;2022-10-22T01:56:50;42.10;;;38.00;;
7985;SDS011;4038;42.612;23.066;2022-10-22T02:02:42;42.73;;;38.27;;
7985;SDS011;4038;42.612;23.066;2022-10-22T02:05:49;45.30;;;40.63;;
7985;SDS011;4038;42.612;23.066;2022-10-22T02:07:47;45.33;;;39.47;;
7985;SDS011;4038;42.612;23.066;2022-10-22T02:10:16;44.90;;;40.00;;
7985;SDS011;4038;42.612;23.066;2022-10-22T02:12:43;54.80;;;44.07;;
7985;SDS011;4038;42.612;23.066;2022-10-22T02:15:14;51.00;;;45.10;;
7985;SDS011;4038;42.612;23.066;2022-10-22T02:17:41;44.37;;;39.67;;
7985;SDS011;4038;42.612;23.066;2022-10-22T02:20:23;45.03;;;40.30;;
7985;SDS011;4038;42.612;23.066;2022-10-22T02:22:55;43.27;;;38.93;;
7985;SDS011;4038;42.612;23.066;2022-10-22T02:25:22;44.17;;;39.77;;
7985;SDS011;4038;42.612;23.066;2022-10-22T02:28:15;41.97;;;37.63;;
7985;SDS011;4038;42.612;23.066;2022-10-22T02:30:43;41.83;;;37.20;;
7985;SDS011;4038;42.612;23.066;2022-10-22T02:33:24;39.90;;;36.00;;
7985;SDS011;4038;42.612;23.066;2022-10-22T02:35:52;41.47;;;37.47;;
7985;SDS011;4038;42.612;23.066;2022-10-22T02:38:19;40.20;;;36.13;;
7985;SDS011;4038;42.612;23.066;2022-10-22T02:40:46;39.87;;;35.80;;
7985;SDS011;4038;42.612;23.066;2022-10-22T02:43:12;41.67;;;37.70;;
7985;SDS011;4038;42.612;23.066;2022-10-22T02:45:38;41.63;;;37.80;;
7985;SDS011;4038;42.612;23.066;2022-10-22T02:48:03;42.47;;;38.17;;
7985;SDS011;4038;42.612;23.066;2022-10-22T02:50:29;41.33;;;37.53;;
7985;SDS011;4038;42.612;23.066;2022-10-22T02:52:54;41.20;;;37.23;;
7985;SDS011;4038;42.612;23.066;2022-10-22T02:55:20;42.50;;;38.00;;
7985;SDS011;4038;42.612;23.066;2022-10-22T02:57:45;42.53;;;38.30;;
7985;SDS011;4038;42.612;23.066;2022-10-22T03:00:10;41.60;;;37.20;;
7985;SDS011;4038;42.612;23.066;2022-10-22T03:02:36;41.47;;;37.37;;
7985;SDS011;4038;42.612;23.066;2022-10-22T03:05:02;43.60;;;38.47;;
7985;SDS011;4038;42.612;23.066;2022-10-22T03:07:28;41.47;;;37.57;;
7985;SDS011;4038;42.612;23.066;2022-10-22T03:09:54;42.67;;;38.67;;
7985;SDS011;4038;42.612;23.066;2022-10-22T03:12:19;42.87;;;38.70;;
7985;SDS011;4038;42.612;23.066;2022-10-22T03:14:45;43.23;;;39.03;;
7985;SDS011;4038;42.612;23.066;2022-10-22T03:17:10;42.30;;;38.10;;
7985;SDS011;4038;42.612;23.066;2022-10-22T03:19:36;42.80;;;38.27;;
7985;SDS011;4038;42.612;23.066;2022-10-22T03:22:02;43.27;;;39.20;;
7985;SDS011;4038;42.612;23.066;2022-10-22T03:24:32;40.63;;;36.63;;
7985;SDS011;4038;42.612;23.066;2022-10-22T03:27:00;40.37;;;36.27;;
7985;SDS011;4038;42.612;23.066;2022-10-22T03:29:26;42.60;;;38.27;;
7985;SDS011;4038;42.612;23.066;2022-10-22T03:31:52;41.50;;;37.53;;
7985;SDS011;4038;42.612;23.066;2022-10-22T03:34:18;42.63;;;38.33;;
7985;SDS011;4038;42.612;23.066;2022-10-22T03:36:44;38.53;;;34.80;;
7985;SDS011;4038;42.612;23.066;2022-10-22T03:39:13;37.20;;;33.73;;
7985;SDS011;4038;42.612;23.066;2022-10-22T03:41:41;39.93;;;35.87;;
7985;SDS011;4038;42.612;23.066;2022-10-22T03:44:08;39.33;;;35.53;;
7985;SDS011;4038;42.612;23.066;2022-10-22T03:46:34;39.53;;;35.93;;
7985;SDS011;4038;42.612;23.066;2022-10-22T03:48:59;38.03;;;34.33;;
7985;SDS011;4038;42.612;23.066;2022-10-22T03:51:25;41.50;;;37.50;;
7985;SDS011;4038;42.612;23.066;2022-10-22T03:53:52;41.07;;;37.23;;
7985;SDS011;4038;42.612;23.066;2022-10-22T03:56:17;41.27;;;37.50;;
7985;SDS011;4038;42.612;23.066;2022-10-22T03:58:42;39.83;;;35.67;;
7985;SDS011;4038;42.612;23.066;2022-10-22T04:01:09;39.67;;;35.87;;
7985;SDS011;4038;42.612;23.066;2022-10-22T04:03:35;41.77;;;37.57;;
7985;SDS011;4038;42.612;23.066;2022-10-22T04:06:02;40.93;;;36.60;;
7985;SDS011;4038;42.612;23.066;2022-10-22T04:08:29;39.70;;;35.80;;
7985;SDS011;4038;42.612;23.066;2022-10-22T04:10:54;41.53;;;37.07;;
7985;SDS011;4038;42.612;23.066;2022-10-22T04:13:19;45.87;;;41.17;;
7985;SDS011;4038;42.612;23.066;2022-10-22T04:15:45;46.90;;;41.83;;
7985;SDS011;4038;42.612;23.066;2022-10-22T04:18:10;45.77;;;40.93;;
7985;SDS011;4038;42.612;23.066;2022-10-22T04:20:36;46.10;;;41.60;;
7985;SDS011;4038;42.612;23.066;2022-10-22T04:23:01;48.87;;;43.93;;
7985;SDS011;4038;42.612;23.066;2022-10-22T04:25:26;47.43;;;42.53;;
7985;SDS011;4038;42.612;23.066;2022-10-22T04:27:52;46.97;;;42.40;;
7985;SDS011;4038;42.612;23.066;2022-10-22T04:30:17;48.57;;;42.87;;
7985;SDS011;4038;42.612;23.066;2022-10-22T04:32:43;46.50;;;41.03;;
7985;SDS011;4038;42.612;23.066;2022-10-22T04:35:08;45.57;;;41.10;;
7985;SDS011;4038;42.612;23.066;2022-10-22T04:37:33;47.73;;;40.87;;
7985;SDS011;4038;42.612;23.066;2022-10-22T04:39:59;46.93;;;41.93;;
7985;SDS011;4038;42.612;23.066;2022-10-22T04:42:24;46.97;;;41.87;;
7985;SDS011;4038;42.612;23.066;2022-10-22T04:44:50;46.10;;;41.20;;
7985;SDS011;4038;42.612;23.066;2022-10-22T04:47:15;46.57;;;41.90;;
7985;SDS011;4038;42.612;23.066;2022-10-22T04:49:41;45.23;;;40.83;;
7985;SDS011;4038;42.612;23.066;2022-10-22T04:52:06;43.87;;;39.37;;
7985;SDS011;4038;42.612;23.066;2022-10-22T04:54:31;41.87;;;37.87;;
7985;SDS011;4038;42.612;23.066;2022-10-22T04:56:57;43.90;;;39.13;;
7985;SDS011;4038;42.612;23.066;2022-10-22T04:59:22;43.77;;;39.43;;
7985;SDS011;4038;42.612;23.066;2022-10-22T05:01:48;46.53;;;41.60;;
7985;SDS011;4038;42.612;23.066;2022-10-22T05:04:15;45.10;;;40.47;;
7985;SDS011;4038;42.612;23.066;2022-10-22T05:06:41;45.63;;;40.87;;
7985;SDS011;4038;42.612;23.066;2022-10-22T05:09:12;46.13;;;41.53;;
7985;SDS011;4038;42.612;23.066;2022-10-22T05:11:40;47.90;;;41.30;;
7985;SDS011;4038;42.612;23.066;2022-10-22T05:14:09;45.97;;;41.37;;
7985;SDS011;4038;42.612;23.066;2022-10-22T05:16:35;47.83;;;42.43;;
7985;SDS011;4038;42.612;23.066;2022-10-22T05:19:02;45.67;;;41.20;;
7985;SDS011;4038;42.612;23.066;2022-10-22T05:21:28;43.13;;;38.63;;
7985;SDS011;4038;42.612;23.066;2022-10-22T05:23:54;42.20;;;37.57;;
7985;SDS011;4038;42.612;23.066;2022-10-22T05:26:21;42.27;;;37.77;;
7985;SDS011;4038;42.612;23.066;2022-10-22T05:28:49;44.43;;;39.83;;
7985;SDS011;4038;42.612;23.066;2022-10-22T05:31:16;44.20;;;39.57;;
7985;SDS011;4038;42.612;23.066;2022-10-22T05:33:42;44.80;;;40.00;;
7985;SDS011;4038;42.612;23.066;2022-10-22T05:36:09;43.63;;;39.37;;
7985;SDS011;4038;42.612;23.066;2022-10-22T05:38:37;43.20;;;38.90;;
7985;SDS011;4038;42.612;23.066;2022-10-22T05:43:30;47.50;;;42.57;;
7985;SDS011;4038;42.612;23.066;2022-10-22T05:46:00;45.83;;;41.30;;
7985;SDS011;4038;42.612;23.066;2022-10-22T05:48:27;48.43;;;42.90;;
7985;SDS011;4038;42.612;23.066;2022-10-22T05:50:52;45.00;;;40.63;;
7985;SDS011;4038;42.612;23.066;2022-10-22T05:53:17;46.00;;;39.97;;
7985;SDS011;4038;42.612;23.066;2022-10-22T05:55:43;44.60;;;39.33;;
7985;SDS011;4038;42.612;23.066;2022-10-22T05:58:09;44.43;;;40.10;;
7985;SDS011;4038;42.612;23.066;2022-10-22T06:00:36;42.83;;;38.80;;
7985;SDS011;4038;42.612;23.066;2022-10-22T06:03:01;41.00;;;36.93;;
7985;SDS011;4038;42.612;23.066;2022-10-22T06:05:27;40.55;;;36.65;;
7985;SDS011;4038;42.612;23.066;2022-10-22T06:07:52;38.78;;;34.92;;
7985;SDS011;4038;42.612;23.066;2022-10-22T06:10:19;36.75;;;32.95;;
7985;SDS011;4038;42.612;23.066;2022-10-22T06:12:45;36.80;;;33.15;;
7985;SDS011;4038;42.612;23.066;2022-10-22T06:15:13;36.70;;;33.35;;
7985;SDS011;4038;42.612;23.066;2022-10-22T06:17:40;33.80;;;30.48;;
7985;SDS011;4038;42.612;23.066;2022-10-22T06:20:05;36.17;;;32.78;;
7985;SDS011;4038;42.612;23.066;2022-10-22T06:22:31;43.38;;;36.65;;
7985;SDS011;4038;42.612;23.066;2022-10-22T06:24:57;40.30;;;36.22;;
7985;SDS011;4038;42.612;23.066;2022-10-22T06:27:22;44.47;;;38.40;;
7985;SDS011;4038;42.612;23.066;2022-10-22T06:29:48;39.83;;;35.78;;
7985;SDS011;4038;42.612;23.066;2022-10-22T06:32:13;39.03;;;35.22;;
7985;SDS011;4038;42.612;23.066;2022-10-22T06:34:39;38.55;;;35.03;;
7985;SDS011;4038;42.612;23.066;2022-10-22T06:37:04;37.13;;;33.78;;
7985;SDS011;4038;42.612;23.066;2022-10-22T06:39:30;37.08;;;33.30;;
7985;SDS011;4038;42.612;23.066;2022-10-22T06:41:55;34.53;;;31.52;;
7985;SDS011;4038;42.612;23.066;2022-10-22T06:44:21;36.70;;;32.75;;
7985;SDS011;4038;42.612;23.066;2022-10-22T06:46:52;35.75;;;32.53;;
7985;SDS011;4038;42.612;23.066;2022-10-22T06:49:18;35.80;;;32.83;;
7985;SDS011;4038;42.612;23.066;2022-10-22T06:51:44;36.00;;;32.88;;
7985;SDS011;4038;42.612;23.066;2022-10-22T06:54:14;34.53;;;31.50;;
7985;SDS011;4038;42.612;23.066;2022-10-22T06:56:39;35.85;;;32.40;;
7985;SDS011;4038;42.612;23.066;2022-10-22T06:59:05;36.85;;;33.45;;
7985;SDS011;4038;42.612;23.066;2022-10-22T07:01:31;37.05;;;33.88;;
7985;SDS011;4038;42.612;23.066;2022-10-22T07:03:58;36.47;;;32.95;;
7985;SDS011;4038;42.612;23.066;2022-10-22T07:06:25;39.00;;;35.47;;
7985;SDS011;4038;42.612;23.066;2022-10-22T07:08:52;38.83;;;34.95;;
7985;SDS011;4038;42.612;23.066;2022-10-22T07:11:19;39.38;;;35.17;;
7985;SDS011;4038;42.612;23.066;2022-10-22T07:13:46;33.53;;;30.63;;
7985;SDS011;4038;42.612;23.066;2022-10-22T07:16:13;33.00;;;29.70;;
7985;SDS011;4038;42.612;23.066;2022-10-22T07:18:39;33.92;;;30.55;;
7985;SDS011;4038;42.612;23.066;2022-10-22T07:21:08;34.38;;;31.23;;
7985;SDS011;4038;42.612;23.066;2022-10-22T07:23:35;34.28;;;31.30;;
7985;SDS011;4038;42.612;23.066;2022-10-22T07:26:01;34.22;;;30.77;;
7985;SDS011;4038;42.612;23.066;2022-10-22T07:28:27;36.80;;;33.13;;
7985;SDS011;4038;42.612;23.066;2022-10-22T07:30:53;33.70;;;30.15;;
7985;SDS011;4038;42.612;23.066;2022-10-22T07:33:18;35.88;;;32.50;;
7985;SDS011;4038;42.612;23.066;2022-10-22T07:35:44;35.83;;;32.05;;
7985;SDS011;4038;42.612;23.066;2022-10-22T07:38:09;38.03;;;34.20;;
7985;SDS011;4038;42.612;23.066;2022-10-22T07:40:35;38.03;;;33.78;;
7985;SDS011;4038;42.612;23.066;2022-10-22T07:43:01;36.42;;;32.88;;
7985;SDS011;4038;42.612;23.066;2022-10-22T07:45:27;36.40;;;32.75;;
7985;SDS011;4038;42.612;23.066;2022-10-22T07:47:52;36.22;;;32.05;;
7985;SDS011;4038;42.612;23.066;2022-10-22T07:50:18;34.95;;;31.02;;
7985;SDS011;4038;42.612;23.066;2022-10-22T07:52:44;48.28;;;33.47;;
7985;SDS011;4038;42.612;23.066;2022-10-22T07:55:09;39.83;;;36.08;;
7985;SDS011;4038;42.612;23.066;2022-10-22T07:57:35;39.63;;;35.65;;
7985;SDS011;4038;42.612;23.066;2022-10-22T08:00:02;37.80;;;34.15;;
7985;SDS011;4038;42.612;23.066;2022-10-22T08:02:29;38.30;;;34.65;;
7985;SDS011;4038;42.612;23.066;2022-10-22T08:04:54;37.72;;;34.13;;
7985;SDS011;4038;42.612;23.066;2022-10-22T08:07:21;38.28;;;34.88;;
7985;SDS011;4038;42.612;23.066;2022-10-22T08:09:47;35.83;;;32.35;;
7985;SDS011;4038;42.612;23.066;2022-10-22T08:12:12;36.72;;;33.00;;
7985;SDS011;4038;42.612;23.066;2022-10-22T08:14:38;34.42;;;31.10;;
7985;SDS011;4038;42.612;23.066;2022-10-22T08:17:03;34.20;;;31.42;;
7985;SDS011;4038;42.612;23.066;2022-10-22T08:19:29;36.42;;;32.90;;
7985;SDS011;4038;42.612;23.066;2022-10-22T08:21:56;35.25;;;32.15;;
7985;SDS011;4038;42.612;23.066;2022-10-22T08:24:22;35.03;;;32.33;;
7985;SDS011;4038;42.612;23.066;2022-10-22T08:26:48;34.20;;;31.33;;
7985;SDS011;4038;42.612;23.066;2022-10-22T08:29:13;37.97;;;34.65;;
7985;SDS011;4038;42.612;23.066;2022-10-22T08:31:39;37.33;;;34.10;;
7985;SDS011;4038;42.612;23.066;2022-10-22T08:34:04;37.15;;;33.83;;
7985;SDS011;4038;42.612;23.066;2022-10-22T08:36:30;34.95;;;31.95;;
7985;SDS011;4038;42.612;23.066;2022-10-22T08:38:55;35.85;;;32.85;;
7985;SDS011;4038;42.612;23.066;2022-10-22T08:41:21;35.92;;;32.33;;
7985;SDS011;4038;42.612;23.066;2022-10-22T08:44:00;36.00;;;32.78;;
7985;SDS011;4038;42.612;23.066;2022-10-22T08:49:25;32.95;;;30.42;;
7985;SDS011;4038;42.612;23.066;2022-10-22T08:51:53;33.03;;;30.02;;
7985;SDS011;4038;42.612;23.066;2022-10-22T08:56:55;34.30;;;31.42;;
7985;SDS011;4038;42.612;23.066;2022-10-22T09:07:54;29.73;;;27.35;;
7985;SDS011;4038;42.612;23.066;2022-10-22T09:10:23;30.25;;;27.77;;
7985;SDS011;4038;42.612;23.066;2022-10-22T09:12:53;30.00;;;27.35;;
7985;SDS011;4038;42.612;23.066;2022-10-22T09:15:18;29.70;;;27.42;;
7985;SDS011;4038;42.612;23.066;2022-10-22T09:25:49;28.27;;;26.17;;
7985;SDS011;4038;42.612;23.066;2022-10-22T09:28:16;28.85;;;26.40;;
7985;SDS011;4038;42.612;23.066;2022-10-22T09:30:42;28.02;;;25.83;;
7985;SDS011;4038;42.612;23.066;2022-10-22T09:35:34;28.42;;;26.35;;
7985;SDS011;4038;42.612;23.066;2022-10-22T09:38:27;28.48;;;26.30;;
7985;SDS011;4038;42.612;23.066;2022-10-22T09:40:55;26.73;;;24.73;;
7985;SDS011;4038;42.612;23.066;2022-10-22T09:43:21;26.33;;;24.13;;
7985;SDS011;4038;42.612;23.066;2022-10-22T09:45:48;26.23;;;24.05;;
7985;SDS011;4038;42.612;23.066;2022-10-22T09:48:21;27.08;;;24.98;;
7985;SDS011;4038;42.612;23.066;2022-10-22T09:51:05;27.48;;;25.48;;
7985;SDS011;4038;42.612;23.066;2022-10-22T09:53:42;27.55;;;25.20;;
7985;SDS011;4038;42.612;23.066;2022-10-22T09:56:16;26.80;;;24.65;;
7985;SDS011;4038;42.612;23.066;2022-10-22T09:58:50;26.90;;;24.67;;
7985;SDS011;4038;42.612;23.066;2022-10-22T10:01:32;27.13;;;25.02;;
7985;SDS011;4038;42.612;23.066;2022-10-22T10:04:04;27.33;;;25.33;;
7985;SDS011;4038;42.612;23.066;2022-10-22T10:06:33;26.88;;;24.45;;
7985;SDS011;4038;42.612;23.066;2022-10-22T10:08:59;26.40;;;24.00;;
7985;SDS011;4038;42.612;23.066;2022-10-22T10:11:37;26.75;;;24.65;;
7985;SDS011;4038;42.612;23.066;2022-10-22T10:14:20;26.25;;;24.05;;
7985;SDS011;4038;42.612;23.066;2022-10-22T10:25:41;27.52;;;25.27;;
7985;SDS011;4038;42.612;23.066;2022-10-22T10:31:06;27.02;;;24.80;;
7985;SDS011;4038;42.612;23.066;2022-10-22T10:41:55;27.83;;;25.45;;
7985;SDS011;4038;42.612;23.066;2022-10-22T10:50:23;25.83;;;23.92;;
7985;SDS011;4038;42.612;23.066;2022-10-22T10:53:06;26.25;;;24.15;;
7985;SDS011;4038;42.612;23.066;2022-10-22T11:06:51;25.85;;;23.67;;
7985;SDS011;4038;42.612;23.066;2022-10-22T11:09:33;28.08;;;25.33;;
7985;SDS011;4038;42.612;23.066;2022-10-22T11:12:25;27.38;;;25.13;;
7985;SDS011;4038;42.612;23.066;2022-10-22T11:15:11;26.60;;;24.25;;
7985;SDS011;4038;42.612;23.066;2022-10-22T11:17:58;26.17;;;24.00;;
7985;SDS011;4038;42.612;23.066;2022-10-22T11:29:00;26.40;;;24.33;;
7985;SDS011;4038;42.612;23.066;2022-10-22T11:31:27;26.55;;;24.23;;
7985;SDS011;4038;42.612;23.066;2022-10-22T11:34:04;26.02;;;23.83;;
7985;SDS011;4038;42.612;23.066;2022-10-22T11:36:38;25.98;;;23.75;;
7985;SDS011;4038;42.612;23.066;2022-10-22T11:39:04;26.42;;;24.27;;
7985;SDS011;4038;42.612;23.066;2022-10-22T11:41:50;27.13;;;25.15;;
7985;SDS011;4038;42.612;23.066;2022-10-22T11:44:21;25.27;;;23.38;;
7985;SDS011;4038;42.612;23.066;2022-10-22T11:46:55;25.15;;;23.15;;
7985;SDS011;4038;42.612;23.066;2022-10-22T11:49:42;26.38;;;24.23;;
7985;SDS011;4038;42.612;23.066;2022-10-22T11:52:21;27.25;;;25.35;;
7985;SDS011;4038;42.612;23.066;2022-10-22T11:55:01;27.65;;;25.38;;
7985;SDS011;4038;42.612;23.066;2022-10-22T11:57:36;26.77;;;24.67;;
7985;SDS011;4038;42.612;23.066;2022-10-22T12:00:48;26.25;;;24.35;;
7985;SDS011;4038;42.612;23.066;2022-10-22T12:03:18;25.75;;;23.90;;
7985;SDS011;4038;42.612;23.066;2022-10-22T12:06:04;27.13;;;24.92;;
7985;SDS011;4038;42.612;23.066;2022-10-22T12:08:40;28.38;;;25.95;;
7985;SDS011;4038;42.612;23.066;2022-10-22T12:11:44;26.55;;;24.42;;
7985;SDS011;4038;42.612;23.066;2022-10-22T12:17:09;27.02;;;24.77;;
7985;SDS011;4038;42.612;23.066;2022-10-22T12:19:42;26.85;;;24.80;;
7985;SDS011;4038;42.612;23.066;2022-10-22T12:22:26;26.25;;;23.65;;
7985;SDS011;4038;42.612;23.066;2022-10-22T12:24:55;26.00;;;23.90;;
7985;SDS011;4038;42.612;23.066;2022-10-22T12:27:26;25.70;;;23.70;;
7985;SDS011;4038;42.612;23.066;2022-10-22T12:30:02;25.17;;;23.27;;
7985;SDS011;4038;42.612;23.066;2022-10-22T12:32:42;25.08;;;22.98;;
7985;SDS011;4038;42.612;23.066;2022-10-22T12:35:14;26.83;;;24.38;;
7985;SDS011;4038;42.612;23.066;2022-10-22T12:37:42;27.80;;;25.50;;
7985;SDS011;4038;42.612;23.066;2022-10-22T12:42:51;26.65;;;24.50;;
7985;SDS011;4038;42.612;23.066;2022-10-22T12:45:25;26.55;;;24.13;;
7985;SDS011;4038;42.612;23.066;2022-10-22T12:48:00;25.60;;;23.45;;
7985;SDS011;4038;42.612;23.066;2022-10-22T12:50:32;26.52;;;24.17;;
7985;SDS011;4038;42.612;23.066;2022-10-22T12:53:03;27.33;;;25.00;;
7985;SDS011;4038;42.612;23.066;2022-10-22T12:55:51;26.85;;;24.33;;
7985;SDS011;4038;42.612;23.066;2022-10-22T12:58:20;26.55;;;24.25;;
7985;SDS011;4038;42.612;23.066;2022-10-22T13:00:51;27.45;;;25.13;;
7985;SDS011;4038;42.612;23.066;2022-10-22T13:03:40;26.40;;;24.05;;
7985;SDS011;4038;42.612;23.066;2022-10-22T13:06:22;28.80;;;26.52;;
7985;SDS011;4038;42.612;23.066;2022-10-22T13:11:40;27.40;;;25.23;;
7985;SDS011;4038;42.612;23.066;2022-10-22T13:14:34;27.40;;;25.08;;
7985;SDS011;4038;42.612;23.066;2022-10-22T13:19:49;27.30;;;24.77;;
7985;SDS011;4038;42.612;23.066;2022-10-22T13:24:55;26.30;;;24.30;;
7985;SDS011;4038;42.612;23.066;2022-10-22T13:27:44;27.00;;;24.65;;
7985;SDS011;4038;42.612;23.066;2022-10-22T13:30:16;27.27;;;25.08;;
7985;SDS011;4038;42.612;23.066;2022-10-22T13:32:54;28.00;;;25.63;;
7985;SDS011;4038;42.612;23.066;2022-10-22T13:35:23;27.65;;;25.33;;
7985;SDS011;4038;42.612;23.066;2022-10-22T13:37:52;28.92;;;26.42;;
7985;SDS011;4038;42.612;23.066;2022-10-22T13:40:18;28.08;;;25.65;;
7985;SDS011;4038;42.612;23.066;2022-10-22T13:42:44;27.60;;;25.30;;
7985;SDS011;4038;42.612;23.066;2022-10-22T13:45:09;27.75;;;25.38;;
7985;SDS011;4038;42.612;23.066;2022-10-22T13:47:36;26.92;;;24.77;;
7985;SDS011;4038;42.612;23.066;2022-10-22T13:50:02;29.63;;;27.00;;
7985;SDS011;4038;42.612;23.066;2022-10-22T13:52:35;27.95;;;25.83;;
7985;SDS011;4038;42.612;23.066;2022-10-22T13:55:14;26.98;;;24.67;;
7985;SDS011;4038;42.612;23.066;2022-10-22T13:57:42;27.05;;;24.35;;
7985;SDS011;4038;42.612;23.066;2022-10-22T14:00:10;25.42;;;23.27;;
7985;SDS011;4038;42.612;23.066;2022-10-22T14:02:43;26.92;;;24.63;;
7985;SDS011;4038;42.612;23.066;2022-10-22T14:05:11;26.00;;;23.90;;
7985;SDS011;4038;42.612;23.066;2022-10-22T14:07:37;25.83;;;23.38;;
7985;SDS011;4038;42.612;23.066;2022-10-22T14:12:58;26.85;;;24.35;;
7985;SDS011;4038;42.612;23.066;2022-10-22T14:15:23;27.23;;;24.55;;
7985;SDS011;4038;42.612;23.066;2022-10-22T14:17:53;27.50;;;25.02;;
7985;SDS011;4038;42.612;23.066;2022-10-22T14:20:22;27.45;;;24.67;;
7985;SDS011;4038;42.612;23.066;2022-10-22T14:22:52;27.45;;;24.75;;
7985;SDS011;4038;42.612;23.066;2022-10-22T14:25:19;32.72;;;25.40;;
7985;SDS011;4038;42.612;23.066;2022-10-22T14:27:46;28.40;;;25.30;;
7985;SDS011;4038;42.612;23.066;2022-10-22T14:30:13;28.65;;;25.67;;
7985;SDS011;4038;42.612;23.066;2022-10-22T14:32:40;28.88;;;25.95;;
7985;SDS011;4038;42.612;23.066;2022-10-22T14:35:06;28.30;;;25.23;;
7985;SDS011;4038;42.612;23.066;2022-10-22T14:37:32;36.50;;;25.77;;
7985;SDS011;4038;42.612;23.066;2022-10-22T14:39:57;27.13;;;23.90;;
7985;SDS011;4038;42.612;23.066;2022-10-22T14:42:27;27.23;;;24.65;;
7985;SDS011;4038;42.612;23.066;2022-10-22T14:44:53;28.50;;;25.58;;
7985;SDS011;4038;42.612;23.066;2022-10-22T14:47:18;31.92;;;24.67;;
7985;SDS011;4038;42.612;23.066;2022-10-22T14:49:44;36.97;;;27.33;;
7985;SDS011;4038;42.612;23.066;2022-10-22T14:52:09;35.38;;;25.75;;
7985;SDS011;4038;42.612;23.066;2022-10-22T14:54:34;33.97;;;26.35;;
7985;SDS011;4038;42.612;23.066;2022-10-22T14:57:01;44.97;;;28.85;;
7985;SDS011;4038;42.612;23.066;2022-10-22T14:59:27;35.00;;;27.00;;
7985;SDS011;4038;42.612;23.066;2022-10-22T15:01:53;27.67;;;24.63;;
7985;SDS011;4038;42.612;23.066;2022-10-22T15:04:19;28.25;;;25.50;;
7985;SDS011;4038;42.612;23.066;2022-10-22T15:06:44;28.25;;;25.33;;
7985;SDS011;4038;42.612;23.066;2022-10-22T15:09:09;27.02;;;24.55;;
7985;SDS011;4038;42.612;23.066;2022-10-22T15:11:35;29.30;;;26.40;;
7985;SDS011;4038;42.612;23.066;2022-10-22T15:14:00;27.70;;;24.90;;
7985;SDS011;4038;42.612;23.066;2022-10-22T15:16:26;36.58;;;25.52;;
7985;SDS011;4038;42.612;23.066;2022-10-22T15:18:51;29.88;;;26.67;;
7985;SDS011;4038;42.612;23.066;2022-10-22T15:21:18;28.75;;;24.98;;
7985;SDS011;4038;42.612;23.066;2022-10-22T15:23:45;27.42;;;24.65;;
7985;SDS011;4038;42.612;23.066;2022-10-22T15:26:11;26.02;;;23.52;;
7985;SDS011;4038;42.612;23.066;2022-10-22T15:28:37;26.80;;;24.05;;
7985;SDS011;4038;42.612;23.066;2022-10-22T15:31:05;29.95;;;24.80;;
7985;SDS011;4038;42.612;23.066;2022-10-22T15:33:31;26.58;;;24.23;;
7985;SDS011;4038;42.612;23.066;2022-10-22T15:35:57;28.58;;;25.17;;
7985;SDS011;4038;42.612;23.066;2022-10-22T15:38:26;26.60;;;24.30;;
7985;SDS011;4038;42.612;23.066;2022-10-22T15:41:05;26.70;;;23.98;;
7985;SDS011;4038;42.612;23.066;2022-10-22T15:43:34;27.92;;;25.23;;
7985;SDS011;4038;42.612;23.066;2022-10-22T15:46:13;25.60;;;23.40;;
7985;SDS011;4038;42.612;23.066;2022-10-22T15:48:40;26.80;;;24.50;;
7985;SDS011;4038;42.612;23.066;2022-10-22T15:51:10;27.30;;;24.48;;
7985;SDS011;4038;42.612;23.066;2022-10-22T15:53:37;26.63;;;24.08;;
7985;SDS011;4038;42.612;23.066;2022-10-22T15:56:03;25.45;;;23.38;;
7985;SDS011;4038;42.612;23.066;2022-10-22T15:58:29;26.23;;;24.23;;
7985;SDS011;4038;42.612;23.066;2022-10-22T16:00:54;26.05;;;24.10;;
7985;SDS011;4038;42.612;23.066;2022-10-22T16:03:20;26.80;;;24.70;;
7985;SDS011;4038;42.612;23.066;2022-10-22T16:05:49;26.55;;;23.83;;
7985;SDS011;4038;42.612;23.066;2022-10-22T16:08:21;30.45;;;26.67;;
7985;SDS011;4038;42.612;23.066;2022-10-22T16:10:46;30.83;;;26.70;;
7985;SDS011;4038;42.612;23.066;2022-10-22T16:13:13;28.42;;;25.63;;
7985;SDS011;4038;42.612;23.066;2022-10-22T16:15:39;29.00;;;26.48;;
7985;SDS011;4038;42.612;23.066;2022-10-22T16:18:05;36.83;;;26.25;;
7985;SDS011;4038;42.612;23.066;2022-10-22T16:20:30;33.58;;;26.98;;
7985;SDS011;4038;42.612;23.066;2022-10-22T16:22:56;31.77;;;27.25;;
7985;SDS011;4038;42.612;23.066;2022-10-22T16:25:21;27.52;;;24.85;;
7985;SDS011;4038;42.612;23.066;2022-10-22T16:27:50;31.02;;;27.67;;
7985;SDS011;4038;42.612;23.066;2022-10-22T16:30:16;28.10;;;25.65;;
7985;SDS011;4038;42.612;23.066;2022-10-22T16:32:42;28.55;;;25.65;;
7985;SDS011;4038;42.612;23.066;2022-10-22T16:35:07;36.08;;;28.17;;
7985;SDS011;4038;42.612;23.066;2022-10-22T16:37:33;28.15;;;25.20;;